sensor_id;sensor_type;location;lat;lon;timestamp;pressure;altitude;pressure_sealevel;temperature;humidity
32851;BME280;19202;48.992;8.390;2023-01-28T00:02:56;101117.47;;;5.14;65.65
32851;BME280;19202;48.992;8.390;2023-01-28T00:08:34;101113.06;;;5.13;65.57
32851;BME280;19202;48.992;8.390;2023-01-28T00:14:11;101117.47;;;5.16;65.76
32851;BME280;19202;48.992;8.390;2023-01-28T00:19:49;101125.31;;;5.21;65.67
32851;BME280;19202;48.992;8.390;2023-01-28T00:25:27;101115.69;;;5.24;65.36
32851;BME280;19202;48.992;8.390;2023-01-28T00:31:14;101113.94;;;5.20;65.48
32851;BME280;19202;48.992;8.390;2023-01-28T00:36:53;101113.94;;;5.20;65.60
32851;BME280;19202;48.992;8.390;2023-01-28T00:42:34;101127.09;;;5.23;65.41
32851;BME280;19202;48.992;8.390;2023-01-28T00:48:12;101109.59;;;5.25;65.13
32851;BME280;19202;48.992;8.390;2023-01-28T00:53:50;101112.22;;;5.25;65.04
32851;BME280;19202;48.992;8.390;2023-01-28T00:59:28;101117.47;;;5.19;65.48
32851;BME280;19202;48.992;8.390;2023-01-28T01:05:06;101106.09;;;5.19;65.60
32851;BME280;19202;48.992;8.390;2023-01-28T01:10:44;101119.22;;;5.23;65.56
32851;BME280;19202;48.992;8.390;2023-01-28T01:16:25;101119.19;;;5.26;65.51
32851;BME280;19202;48.992;8.390;2023-01-28T01:22:03;101120.94;;;5.27;65.68
32851;BME280;19202;48.992;8.390;2023-01-28T01:27:42;101123.56;;;5.27;65.51
32851;BME280;19202;48.992;8.390;2023-01-28T01:33:19;101126.22;;;5.21;65.78
32851;BME280;19202;48.992;8.390;2023-01-28T01:38:57;101125.31;;;5.24;65.74
32851;BME280;19202;48.992;8.390;2023-01-28T01:50:36;101125.31;;;5.27;65.58
32851;BME280;19202;48.992;8.390;2023-01-28T01:56:18;101118.31;;;5.27;66.20
32851;BME280;19202;48.992;8.390;2023-01-28T02:02:00;101119.19;;;5.31;65.97
32851;BME280;19202;48.992;8.390;2023-01-28T02:07:40;101112.19;;;5.28;66.21
32851;BME280;19202;48.992;8.390;2023-01-28T02:13:21;101114.81;;;5.28;66.12
32851;BME280;19202;48.992;8.390;2023-01-28T02:19:01;101119.19;;;5.29;66.53
32851;BME280;19202;48.992;8.390;2023-01-28T02:25:02;101115.69;;;5.33;66.26
32851;BME280;19202;48.992;8.390;2023-01-28T02:30:51;101120.03;;;5.36;66.39
32851;BME280;19202;48.992;8.390;2023-01-28T02:36:50;101116.53;;;5.38;66.19
32851;BME280;19202;48.992;8.390;2023-01-28T02:42:33;101121.78;;;5.38;66.30
32851;BME280;19202;48.992;8.390;2023-01-28T02:48:13;101128.81;;;5.35;66.60
32851;BME280;19202;48.992;8.390;2023-01-28T02:54:00;101131.44;;;5.30;66.87
32851;BME280;19202;48.992;8.390;2023-01-28T03:00:11;101138.44;;;5.27;67.23
32851;BME280;19202;48.992;8.390;2023-01-28T03:05:58;101134.94;;;5.26;67.39
32851;BME280;19202;48.992;8.390;2023-01-28T03:11:45;101136.69;;;5.27;67.40
32851;BME280;19202;48.992;8.390;2023-01-28T03:17:46;101135.81;;;5.25;67.83
32851;BME280;19202;48.992;8.390;2023-01-28T03:24:16;101133.19;;;5.25;68.74
32851;BME280;19202;48.992;8.390;2023-01-28T03:30:31;101129.69;;;5.29;68.39
32851;BME280;19202;48.992;8.390;2023-01-28T03:36:31;101125.34;;;5.25;68.58
32851;BME280;19202;48.992;8.390;2023-01-28T03:42:29;101134.06;;;5.27;68.63
32851;BME280;19202;48.992;8.390;2023-01-28T03:48:08;101147.19;;;5.27;69.02
32851;BME280;19202;48.992;8.390;2023-01-28T03:53:46;101146.31;;;5.27;68.85
32851;BME280;19202;48.992;8.390;2023-01-28T03:59:23;101150.69;;;5.29;69.05
32851;BME280;19202;48.992;8.390;2023-01-28T04:05:01;101158.53;;;5.26;69.29
32851;BME280;19202;48.992;8.390;2023-01-28T04:10:43;101148.06;;;5.25;69.61
32851;BME280;19202;48.992;8.390;2023-01-28T04:16:21;101155.94;;;5.23;69.98
32851;BME280;19202;48.992;8.390;2023-01-28T04:21:59;101165.56;;;5.21;70.65
32851;BME280;19202;48.992;8.390;2023-01-28T04:27:37;101164.69;;;5.21;71.05
32851;BME280;19202;48.992;8.390;2023-01-28T04:33:15;101165.53;;;5.24;70.90
32851;BME280;19202;48.992;8.390;2023-01-28T04:38:53;101175.16;;;5.27;71.29
32851;BME280;19202;48.992;8.390;2023-01-28T04:44:31;101171.69;;;5.29;71.34
32851;BME280;19202;48.992;8.390;2023-01-28T04:50:09;101182.16;;;5.32;71.57
32851;BME280;19202;48.992;8.390;2023-01-28T04:55:47;101173.41;;;5.33;71.93
32851;BME280;19202;48.992;8.390;2023-01-28T05:01:26;101176.00;;;5.38;71.87
32851;BME280;19202;48.992;8.390;2023-01-28T05:07:04;101176.91;;;5.38;72.42
32851;BME280;19202;48.992;8.390;2023-01-28T05:12:43;101178.66;;;5.36;73.79
32851;BME280;19202;48.992;8.390;2023-01-28T05:18:21;101187.41;;;5.32;73.85
32851;BME280;19202;48.992;8.390;2023-01-28T05:23:59;101188.28;;;5.33;74.49
32851;BME280;19202;48.992;8.390;2023-01-28T05:29:37;101185.66;;;5.31;75.09
32851;BME280;19202;48.992;8.390;2023-01-28T05:35:15;101194.41;;;5.27;76.12
32851;BME280;19202;48.992;8.390;2023-01-28T05:40:53;101190.91;;;5.28;76.25
32851;BME280;19202;48.992;8.390;2023-01-28T05:46:31;101196.16;;;5.34;75.68
32851;BME280;19202;48.992;8.390;2023-01-28T05:52:09;101205.78;;;5.29;76.42
32851;BME280;19202;48.992;8.390;2023-01-28T05:57:47;101209.28;;;5.33;76.12
32851;BME280;19202;48.992;8.390;2023-01-28T06:03:25;101212.78;;;5.29;76.95
32851;BME280;19202;48.992;8.390;2023-01-28T06:09:03;101229.41;;;5.23;77.62
32851;BME280;19202;48.992;8.390;2023-01-28T06:14:41;101233.75;;;5.17;78.27
32851;BME280;19202;48.992;8.390;2023-01-28T06:20:19;101245.13;;;5.20;77.50
32851;BME280;19202;48.992;8.390;2023-01-28T06:25:57;101248.63;;;5.19;78.22
32851;BME280;19202;48.992;8.390;2023-01-28T06:31:35;101260.00;;;5.15;78.25
32851;BME280;19202;48.992;8.390;2023-01-28T06:37:13;101256.47;;;5.18;78.20
32851;BME280;19202;48.992;8.390;2023-01-28T06:42:51;101263.50;;;5.25;78.43
32851;BME280;19202;48.992;8.390;2023-01-28T06:48:29;101267.88;;;5.21;78.58
32851;BME280;19202;48.992;8.390;2023-01-28T06:54:07;101271.38;;;5.26;78.38
32851;BME280;19202;48.992;8.390;2023-01-28T06:59:45;101276.63;;;5.23;78.20
32851;BME280;19202;48.992;8.390;2023-01-28T07:05:23;101283.59;;;5.24;78.02
32851;BME280;19202;48.992;8.390;2023-01-28T07:11:02;101287.97;;;5.22;78.20
32851;BME280;19202;48.992;8.390;2023-01-28T07:16:41;101290.59;;;5.24;78.64
32851;BME280;19202;48.992;8.390;2023-01-28T07:22:19;101293.25;;;5.31;78.44
32851;BME280;19202;48.992;8.390;2023-01-28T07:27:57;101297.63;;;5.23;79.15
32851;BME280;19202;48.992;8.390;2023-01-28T07:33:35;101307.22;;;5.21;78.73
32851;BME280;19202;48.992;8.390;2023-01-28T07:39:13;101306.38;;;5.25;78.69
32851;BME280;19202;48.992;8.390;2023-01-28T07:44:51;101304.63;;;5.27;79.12
32851;BME280;19202;48.992;8.390;2023-01-28T07:50:30;101315.97;;;5.31;78.56
32851;BME280;19202;48.992;8.390;2023-01-28T07:56:09;101319.47;;;5.34;78.73
32851;BME280;19202;48.992;8.390;2023-01-28T08:01:47;101329.97;;;5.34;78.83
32851;BME280;19202;48.992;8.390;2023-01-28T08:07:26;101335.22;;;5.33;79.02
32851;BME280;19202;48.992;8.390;2023-01-28T08:13:05;101341.34;;;5.33;79.12
32851;BME280;19202;48.992;8.390;2023-01-28T08:18:43;101353.59;;;5.34;79.37
32851;BME280;19202;48.992;8.390;2023-01-28T08:24:21;101354.47;;;5.33;79.41
32851;BME280;19202;48.992;8.390;2023-01-28T08:29:58;101344.88;;;5.35;79.73
32851;BME280;19202;48.992;8.390;2023-01-28T08:35:37;101348.34;;;5.33;80.06
32851;BME280;19202;48.992;8.390;2023-01-28T08:41:15;101348.38;;;5.43;79.15
32851;BME280;19202;48.992;8.390;2023-01-28T08:46:52;101361.47;;;5.40;79.89
32851;BME280;19202;48.992;8.390;2023-01-28T08:52:30;101364.09;;;5.42;80.37
32851;BME280;19202;48.992;8.390;2023-01-28T08:58:11;101354.47;;;5.41;79.95
32851;BME280;19202;48.992;8.390;2023-01-28T09:03:49;101357.13;;;5.39;80.59
32851;BME280;19202;48.992;8.390;2023-01-28T09:09:29;101354.47;;;5.42;80.51
32851;BME280;19202;48.992;8.390;2023-01-28T09:15:08;101364.97;;;5.44;80.65
32851;BME280;19202;48.992;8.390;2023-01-28T09:20:46;101377.25;;;5.51;80.46
32851;BME280;19202;48.992;8.390;2023-01-28T09:26:24;101372.84;;;5.48;80.20
32851;BME280;19202;48.992;8.390;2023-01-28T09:32:02;101372.00;;;5.61;79.94
32851;BME280;19202;48.992;8.390;2023-01-28T09:37:40;101381.66;;;5.71;79.99
32851;BME280;19202;48.992;8.390;2023-01-28T09:43:41;101382.53;;;5.79;79.38
32851;BME280;19202;48.992;8.390;2023-01-28T09:49:39;101382.53;;;5.79;79.46
32851;BME280;19202;48.992;8.390;2023-01-28T09:55:37;101393.94;;;5.87;79.24
32851;BME280;19202;48.992;8.390;2023-01-28T10:19:13;101388.66;;;6.09;78.21
32851;BME280;19202;48.992;8.390;2023-01-28T10:24:54;101372.88;;;6.16;77.76
32851;BME280;19202;48.992;8.390;2023-01-28T10:30:38;101379.88;;;6.13;77.71
32851;BME280;19202;48.992;8.390;2023-01-28T10:36:18;101378.16;;;6.12;77.46
32851;BME280;19202;48.992;8.390;2023-01-28T10:41:56;101373.78;;;6.03;77.19
32851;BME280;19202;48.992;8.390;2023-01-28T10:47:43;101384.28;;;6.03;77.48
32851;BME280;19202;48.992;8.390;2023-01-28T10:59:21;101392.16;;;6.03;77.53
32851;BME280;19202;48.992;8.390;2023-01-28T11:05:06;101384.28;;;5.98;77.90
32851;BME280;19202;48.992;8.390;2023-01-28T11:10:57;101391.28;;;6.07;77.22
32851;BME280;19202;48.992;8.390;2023-01-28T11:16:38;101392.16;;;6.05;77.35
32851;BME280;19202;48.992;8.390;2023-01-28T11:22:38;101399.19;;;5.93;78.25
32851;BME280;19202;48.992;8.390;2023-01-28T11:28:20;101395.66;;;5.94;77.88
32851;BME280;19202;48.992;8.390;2023-01-28T11:34:00;101402.69;;;5.95;78.14
32851;BME280;19202;48.992;8.390;2023-01-28T11:39:41;101400.94;;;5.97;78.11
32851;BME280;19202;48.992;8.390;2023-01-28T11:45:26;101403.56;;;5.99;77.93
32851;BME280;19202;48.992;8.390;2023-01-28T12:03:02;101397.41;;;6.03;77.80
32851;BME280;19202;48.992;8.390;2023-01-28T12:44:04;101365.88;;;6.05;73.27
32851;BME280;19202;48.992;8.390;2023-01-28T12:49:53;101369.41;;;6.04;73.22
32851;BME280;19202;48.992;8.390;2023-01-28T12:55:39;101360.63;;;6.17;72.75
32851;BME280;19202;48.992;8.390;2023-01-28T13:01:25;101367.63;;;6.24;72.21
32851;BME280;19202;48.992;8.390;2023-01-28T13:07:11;101362.34;;;6.30;71.88
32851;BME280;19202;48.992;8.390;2023-01-28T13:12:50;101364.97;;;6.31;71.30
32851;BME280;19202;48.992;8.390;2023-01-28T13:30:05;101364.97;;;6.27;69.09
32851;BME280;19202;48.992;8.390;2023-01-28T13:35:52;101373.75;;;6.32;69.22
32851;BME280;19202;48.992;8.390;2023-01-28T13:41:42;101383.34;;;6.39;68.06
32851;BME280;19202;48.992;8.390;2023-01-28T14:17:56;101421.06;;;6.32;67.83
32851;BME280;19202;48.992;8.390;2023-01-28T14:23:35;101426.31;;;6.27;67.23
32851;BME280;19202;48.992;8.390;2023-01-28T14:29:37;101427.19;;;6.22;66.38
32851;BME280;19202;48.992;8.390;2023-01-28T14:35:28;101439.44;;;6.29;66.76
32851;BME280;19202;48.992;8.390;2023-01-28T14:41:07;101446.47;;;6.30;66.42
32851;BME280;19202;48.992;8.390;2023-01-28T14:46:57;101448.22;;;6.28;65.46
32851;BME280;19202;48.992;8.390;2023-01-28T14:58:42;101455.22;;;6.29;66.23
32851;BME280;19202;48.992;8.390;2023-01-28T15:04:32;101452.59;;;6.27;65.49
32851;BME280;19202;48.992;8.390;2023-01-28T15:10:23;101466.59;;;6.19;64.68
32851;BME280;19202;48.992;8.390;2023-01-28T15:16:03;101463.97;;;6.01;66.24
32851;BME280;19202;48.992;8.390;2023-01-28T15:21:44;101472.75;;;6.00;65.34
32851;BME280;19202;48.992;8.390;2023-01-28T15:27:29;101476.22;;;5.92;65.36
32851;BME280;19202;48.992;8.390;2023-01-28T15:33:13;101488.50;;;5.87;64.93
32851;BME280;19202;48.992;8.390;2023-01-28T15:38:52;101494.63;;;5.83;64.61
32851;BME280;19202;48.992;8.390;2023-01-28T15:44:36;101501.56;;;5.83;64.46
32851;BME280;19202;48.992;8.390;2023-01-28T15:50:21;101504.16;;;5.72;64.34
32851;BME280;19202;48.992;8.390;2023-01-28T15:56:11;101505.91;;;5.61;63.91
32851;BME280;19202;48.992;8.390;2023-01-28T16:01:49;101502.41;;;5.62;64.36
32851;BME280;19202;48.992;8.390;2023-01-28T16:07:29;101504.13;;;5.60;64.43
32851;BME280;19202;48.992;8.390;2023-01-28T16:13:15;101509.41;;;5.63;63.93
32851;BME280;19202;48.992;8.390;2023-01-28T16:18:56;101495.38;;;5.58;63.78
32851;BME280;19202;48.992;8.390;2023-01-28T16:24:34;101495.38;;;5.58;64.01
32851;BME280;19202;48.992;8.390;2023-01-28T16:30:13;101502.41;;;5.59;64.02
32851;BME280;19202;48.992;8.390;2023-01-28T16:35:51;101505.91;;;5.61;64.25
32851;BME280;19202;48.992;8.390;2023-01-28T16:41:32;101500.66;;;5.64;63.82
32851;BME280;19202;48.992;8.390;2023-01-28T16:47:11;101495.41;;;5.61;63.72
32851;BME280;19202;48.992;8.390;2023-01-28T16:52:50;101502.41;;;5.65;64.24
32851;BME280;19202;48.992;8.390;2023-01-28T16:58:30;101505.91;;;5.64;64.03
32851;BME280;19202;48.992;8.390;2023-01-28T17:04:08;101512.03;;;5.63;64.14
32851;BME280;19202;48.992;8.390;2023-01-28T17:09:46;101524.28;;;5.61;63.89
32851;BME280;19202;48.992;8.390;2023-01-28T17:15:24;101523.41;;;5.59;63.64
32851;BME280;19202;48.992;8.390;2023-01-28T17:21:04;101538.25;;;5.56;63.48
32851;BME280;19202;48.992;8.390;2023-01-28T17:26:42;101542.63;;;5.55;63.43
32851;BME280;19202;48.992;8.390;2023-01-28T17:32:20;101538.19;;;5.44;63.02
32851;BME280;19202;48.992;8.390;2023-01-28T17:37:58;101541.69;;;5.38;62.80
32851;BME280;19202;48.992;8.390;2023-01-28T17:43:36;101546.03;;;5.27;63.63
32851;BME280;19202;48.992;8.390;2023-01-28T17:49:14;101556.53;;;5.36;63.06
32851;BME280;19202;48.992;8.390;2023-01-28T17:54:52;101560.03;;;5.32;63.48
32851;BME280;19202;48.992;8.390;2023-01-28T18:00:30;101554.81;;;5.35;63.50
32851;BME280;19202;48.992;8.390;2023-01-28T18:06:09;101563.53;;;5.34;63.51
32851;BME280;19202;48.992;8.390;2023-01-28T18:11:47;101566.19;;;5.39;62.77
32851;BME280;19202;48.992;8.390;2023-01-28T18:17:25;101574.09;;;5.43;62.42
32851;BME280;19202;48.992;8.390;2023-01-28T18:23:06;101573.06;;;5.22;63.24
32851;BME280;19202;48.992;8.390;2023-01-28T18:28:44;101579.25;;;5.28;63.58
32851;BME280;19202;48.992;8.390;2023-01-28T18:34:24;101591.47;;;5.25;63.39
32851;BME280;19202;48.992;8.390;2023-01-28T18:40:03;101587.13;;;5.27;63.13
32851;BME280;19202;48.992;8.390;2023-01-28T18:45:42;101596.66;;;5.11;63.33
32851;BME280;19202;48.992;8.390;2023-01-28T18:51:27;101584.31;;;4.98;63.65
32851;BME280;19202;48.992;8.390;2023-01-28T18:57:04;101599.16;;;4.97;63.73
32851;BME280;19202;48.992;8.390;2023-01-28T19:02:42;101593.91;;;4.97;63.37
32851;BME280;19202;48.992;8.390;2023-01-28T19:08:20;101601.78;;;4.96;63.51
32851;BME280;19202;48.992;8.390;2023-01-28T19:13:59;101594.84;;;5.04;63.67
32851;BME280;19202;48.992;8.390;2023-01-28T19:19:37;101603.59;;;5.06;63.38
32851;BME280;19202;48.992;8.390;2023-01-28T19:25:15;101607.13;;;5.08;63.38
32851;BME280;19202;48.992;8.390;2023-01-28T19:30:53;101607.13;;;5.08;63.24
32851;BME280;19202;48.992;8.390;2023-01-28T19:36:32;101607.97;;;5.04;62.84
32851;BME280;19202;48.992;8.390;2023-01-28T19:42:10;101602.66;;;4.99;62.71
32851;BME280;19202;48.992;8.390;2023-01-28T19:47:48;101613.16;;;4.95;63.04
32851;BME280;19202;48.992;8.390;2023-01-28T19:53:26;101618.34;;;4.89;62.57
32851;BME280;19202;48.992;8.390;2023-01-28T19:59:05;101634.97;;;4.91;62.49
32851;BME280;19202;48.992;8.390;2023-01-28T20:04:44;101652.44;;;4.89;61.16
32851;BME280;19202;48.992;8.390;2023-01-28T20:10:22;101664.50;;;4.70;62.06
32851;BME280;19202;48.992;8.390;2023-01-28T20:16:05;101663.56;;;4.61;61.99
32851;BME280;19202;48.992;8.390;2023-01-28T20:21:44;101676.75;;;4.70;62.12
32851;BME280;19202;48.992;8.390;2023-01-28T20:27:23;101668.94;;;4.76;60.96
32851;BME280;19202;48.992;8.390;2023-01-28T20:33:01;101680.19;;;4.64;61.06
32851;BME280;19202;48.992;8.390;2023-01-28T20:38:42;101675.69;;;4.51;61.51
32851;BME280;19202;48.992;8.390;2023-01-28T20:44:20;101678.41;;;4.59;60.99
32851;BME280;19202;48.992;8.390;2023-01-28T20:49:58;101668.72;;;4.53;60.19
32851;BME280;19202;48.992;8.390;2023-01-28T20:55:36;101676.50;;;4.46;60.49
32851;BME280;19202;48.992;8.390;2023-01-28T21:01:23;101690.50;;;4.46;60.83
32851;BME280;19202;48.992;8.390;2023-01-28T21:07:01;101694.03;;;4.51;60.66
32851;BME280;19202;48.992;8.390;2023-01-28T21:12:39;101695.81;;;4.54;59.12
32851;BME280;19202;48.992;8.390;2023-01-28T21:18:16;101684.28;;;4.37;59.22
32851;BME280;19202;48.992;8.390;2023-01-28T21:23:58;101693.06;;;4.40;59.85
32851;BME280;19202;48.992;8.390;2023-01-28T21:29:36;101685.25;;;4.48;59.85
32851;BME280;19202;48.992;8.390;2023-01-28T21:35:14;101700.97;;;4.48;59.40
32851;BME280;19202;48.992;8.390;2023-01-28T21:40:52;101699.25;;;4.47;59.56
32851;BME280;19202;48.992;8.390;2023-01-28T21:46:31;101695.75;;;4.48;59.03
32851;BME280;19202;48.992;8.390;2023-01-28T21:52:11;101704.38;;;4.39;58.91
32851;BME280;19202;48.992;8.390;2023-01-28T21:57:49;101706.09;;;4.36;59.17
32851;BME280;19202;48.992;8.390;2023-01-28T22:03:47;101706.06;;;4.33;59.17
32851;BME280;19202;48.992;8.390;2023-01-28T22:09:27;101704.31;;;4.32;59.38
32851;BME280;19202;48.992;8.390;2023-01-28T22:15:05;101708.72;;;4.37;59.24
32851;BME280;19202;48.992;8.390;2023-01-28T22:20:43;101702.56;;;4.32;58.98
32851;BME280;19202;48.992;8.390;2023-01-28T22:26:21;101715.69;;;4.35;59.10
32851;BME280;19202;48.992;8.390;2023-01-28T22:32:00;101701.72;;;4.35;58.51
32851;BME280;19202;48.992;8.390;2023-01-28T22:37:41;101685.88;;;4.24;58.91
32851;BME280;19202;48.992;8.390;2023-01-28T22:43:18;101678.84;;;4.21;59.05
32851;BME280;19202;48.992;8.390;2023-01-28T22:48:57;101672.72;;;4.19;59.04
32851;BME280;19202;48.992;8.390;2023-01-28T22:54:35;101676.25;;;4.21;59.34
32851;BME280;19202;48.992;8.390;2023-01-28T23:00:14;101689.41;;;4.26;59.09
32851;BME280;19202;48.992;8.390;2023-01-28T23:05:57;101671.06;;;4.27;58.84
32851;BME280;19202;48.992;8.390;2023-01-28T23:11:36;101678.94;;;4.27;58.74
32851;BME280;19202;48.992;8.390;2023-01-28T23:17:13;101673.75;;;4.31;58.87
32851;BME280;19202;48.992;8.390;2023-01-28T23:23:13;101683.34;;;4.32;58.46
32851;BME280;19202;48.992;8.390;2023-01-28T23:29:11;101676.34;;;4.31;58.21
32851;BME280;19202;48.992;8.390;2023-01-28T23:34:49;101676.16;;;4.14;58.14
32851;BME280;19202;48.992;8.390;2023-01-28T23:40:27;101667.53;;;4.22;58.27
32851;BME280;19202;48.992;8.390;2023-01-28T23:46:05;101668.38;;;4.23;58.46
32851;BME280;19202;48.992;8.390;2023-01-28T23:51:43;101664.03;;;4.23;57.52
32851;BME280;19202;48.992;8.390;2023-01-28T23:57:21;101661.34;;;4.14;57.80
